createdAt,value
2018-12-24T00:00:54.833Z,0.60
2018-12-24T00:03:17.068Z,0.93
2018-12-24T00:05:39.308Z,0.43
2018-12-24T00:08:01.560Z,0.37
2018-12-24T00:10:23.804Z,0.40
2018-12-24T00:12:46.027Z,0.50
2018-12-24T00:15:08.278Z,0.53
2018-12-24T00:17:30.514Z,0.40
2018-12-24T00:19:52.748Z,0.50
2018-12-24T00:22:15.024Z,0.90
2018-12-24T00:24:37.241Z,0.50
2018-12-24T00:26:59.491Z,0.50
2018-12-24T00:29:21.819Z,0.40
2018-12-24T00:31:44.062Z,0.97
2018-12-24T00:34:06.300Z,0.70
2018-12-24T00:36:28.567Z,0.43
2018-12-24T00:38:50.814Z,0.50
2018-12-24T00:41:13.058Z,1.27
2018-12-24T00:43:35.339Z,0.73
2018-12-24T00:45:57.579Z,1.33
2018-12-24T00:48:19.859Z,0.43
2018-12-24T00:50:42.136Z,0.60
2018-12-24T00:53:04.446Z,2.00
2018-12-24T00:55:26.664Z,0.40
2018-12-24T00:57:48.916Z,0.40
2018-12-24T01:00:11.159Z,3.03
2018-12-24T01:02:33.415Z,0.40
2018-12-24T01:04:55.646Z,0.30
2018-12-24T01:07:17.941Z,0.40
2018-12-24T01:09:40.195Z,0.30
2018-12-24T01:12:02.439Z,0.60
2018-12-24T01:14:24.703Z,0.40
2018-12-24T01:16:46.941Z,1.90
2018-12-24T01:19:09.176Z,0.40
2018-12-24T01:21:31.438Z,0.77
2018-12-24T01:23:53.708Z,0.40
2018-12-24T01:26:15.971Z,0.50
2018-12-24T01:28:38.207Z,0.30
2018-12-24T01:31:00.536Z,0.37
2018-12-24T01:33:22.775Z,0.30
2018-12-24T01:35:45.011Z,0.40
2018-12-24T01:38:07.247Z,0.30
2018-12-24T01:40:29.527Z,0.33
2018-12-24T01:42:51.755Z,0.20
2018-12-24T01:45:14.004Z,0.33
2018-12-24T01:47:36.311Z,0.77
2018-12-24T01:49:58.639Z,1.13
2018-12-24T01:52:20.910Z,0.37
2018-12-24T01:54:43.138Z,0.50
2018-12-24T01:57:05.472Z,0.30
2018-12-24T01:59:27.750Z,2.17
2018-12-24T02:01:50.008Z,0.30
2018-12-24T02:04:12.273Z,0.30
2018-12-24T02:06:34.628Z,0.40
2018-12-24T02:08:56.931Z,0.30
2018-12-24T02:11:19.193Z,0.20
2018-12-24T02:13:41.442Z,1.60
2018-12-24T02:16:03.726Z,0.30
2018-12-24T02:18:26.031Z,0.23
2018-12-24T02:20:48.248Z,0.20
2018-12-24T02:23:10.549Z,0.57
2018-12-24T02:25:32.819Z,0.40
2018-12-24T02:27:55.071Z,0.30
2018-12-24T02:30:17.312Z,0.30
2018-12-24T02:32:39.591Z,0.30
2018-12-24T02:35:01.840Z,0.73
2018-12-24T02:37:24.110Z,0.30
2018-12-24T02:39:46.351Z,0.20
2018-12-24T02:42:08.650Z,0.20
2018-12-24T02:44:30.895Z,0.30
2018-12-24T02:46:53.156Z,0.43
2018-12-24T02:49:15.395Z,0.30
2018-12-24T02:51:37.601Z,0.30
2018-12-24T02:53:59.835Z,0.50
2018-12-24T02:56:22.132Z,0.30
2018-12-24T02:58:44.371Z,0.30
2018-12-24T03:01:06.619Z,0.97
2018-12-24T03:03:28.879Z,0.20
2018-12-24T03:05:51.154Z,0.73
2018-12-24T03:08:13.436Z,0.50
2018-12-24T03:10:35.711Z,0.30
2018-12-24T03:13:02.979Z,1.90
2018-12-24T03:15:20.290Z,0.30
2018-12-24T03:17:42.548Z,0.30
2018-12-24T03:20:05.247Z,0.30
2018-12-24T03:22:27.483Z,0.30
2018-12-24T03:24:49.773Z,0.20
2018-12-24T03:27:12.011Z,0.80
2018-12-24T03:29:34.300Z,0.30
2018-12-24T03:31:56.495Z,0.30
2018-12-24T03:34:18.727Z,0.70
2018-12-24T03:36:40.967Z,1.07
2018-12-24T03:39:04.945Z,2.43
2018-12-24T03:41:27.170Z,0.30
2018-12-24T03:43:49.393Z,0.30
2018-12-24T03:46:11.652Z,3.17
2018-12-24T03:48:33.987Z,3.70
2018-12-24T03:50:56.216Z,5.03
2018-12-24T03:53:18.456Z,5.87
2018-12-24T03:55:40.707Z,2.37
2018-12-24T03:58:03.020Z,1.20
2018-12-24T04:00:25.293Z,0.50
2018-12-24T04:02:47.540Z,0.73
2018-12-24T04:05:09.827Z,0.87
2018-12-24T04:07:32.087Z,5.53
2018-12-24T04:09:54.392Z,0.90
2018-12-24T04:12:16.668Z,2.00
2018-12-24T04:14:38.922Z,0.40
2018-12-24T04:17:01.163Z,2.73
2018-12-24T04:19:23.404Z,1.23
2018-12-24T04:21:45.691Z,0.70
2018-12-24T04:24:08.005Z,2.90
2018-12-24T04:26:30.256Z,2.30
2018-12-24T04:28:52.517Z,2.57
2018-12-24T04:31:14.752Z,1.27
2018-12-24T04:33:37.047Z,1.77
2018-12-24T04:35:59.291Z,2.33
2018-12-24T04:38:21.516Z,2.63
2018-12-24T04:40:43.793Z,2.87
2018-12-24T04:43:06.031Z,2.40
2018-12-24T04:45:28.276Z,1.10
2018-12-24T04:47:50.515Z,2.27
2018-12-24T04:50:12.774Z,1.17
2018-12-24T04:52:35.037Z,1.50
2018-12-24T04:54:57.305Z,2.50
2018-12-24T04:57:19.553Z,1.50
2018-12-24T04:59:41.817Z,0.90
2018-12-24T05:02:04.063Z,1.00
2018-12-24T05:04:26.285Z,1.20
2018-12-24T05:06:48.559Z,1.10
2018-12-24T05:09:10.775Z,1.10
2018-12-24T05:11:33.054Z,3.00
2018-12-24T05:13:55.319Z,1.30
2018-12-24T05:16:17.543Z,3.23
2018-12-24T05:18:39.773Z,0.80
2018-12-24T05:21:02.035Z,0.70
2018-12-24T05:23:24.242Z,0.83
2018-12-24T05:25:46.484Z,0.40
2018-12-24T05:28:08.735Z,1.23
2018-12-24T05:30:30.958Z,0.60
2018-12-24T05:32:53.210Z,0.40
2018-12-24T05:35:15.459Z,0.53
2018-12-24T05:37:37.740Z,3.60
2018-12-24T05:40:00.095Z,1.93
2018-12-24T05:42:22.328Z,0.50
2018-12-24T05:44:44.588Z,2.60
2018-12-24T05:47:06.852Z,1.03
2018-12-24T05:49:29.108Z,2.93
2018-12-24T05:51:51.375Z,3.20
2018-12-24T05:54:13.591Z,0.63
2018-12-24T05:56:35.808Z,0.87
2018-12-24T05:58:58.070Z,2.43
2018-12-24T06:01:20.297Z,0.57
2018-12-24T06:03:42.587Z,1.03
2018-12-24T06:06:04.800Z,0.40
2018-12-24T06:08:27.040Z,0.40
2018-12-24T06:10:49.303Z,0.43
2018-12-24T06:13:11.544Z,0.70
2018-12-24T06:15:33.759Z,1.57
2018-12-24T06:17:57.689Z,0.80
2018-12-24T06:20:18.293Z,5.00
2018-12-24T06:22:40.593Z,0.33
2018-12-24T06:25:02.867Z,0.50
2018-12-24T06:27:25.101Z,0.50
2018-12-24T06:29:47.375Z,3.70
2018-12-24T06:32:09.623Z,1.13
2018-12-24T06:34:31.866Z,0.80
2018-12-24T06:36:54.093Z,0.80
2018-12-24T06:39:16.315Z,0.70
2018-12-24T06:41:38.563Z,0.70
2018-12-24T06:44:06.717Z,2.30
2018-12-24T06:46:23.056Z,0.87
2018-12-24T06:48:45.288Z,0.87
2018-12-24T06:51:07.524Z,0.90
2018-12-24T06:53:29.747Z,1.20
2018-12-24T06:55:52.018Z,1.10
2018-12-24T06:58:14.257Z,1.67
2018-12-24T07:00:36.508Z,0.80
2018-12-24T07:02:58.779Z,0.50
2018-12-24T07:05:21.038Z,1.23
2018-12-24T07:07:43.268Z,0.60
2018-12-24T07:10:05.725Z,0.70
2018-12-24T07:12:27.995Z,0.63
2018-12-24T07:14:50.264Z,0.50
2018-12-24T07:17:12.502Z,0.40
2018-12-24T07:19:34.731Z,0.70
2018-12-24T07:21:56.975Z,0.63
2018-12-24T07:24:19.249Z,0.80
2018-12-24T07:26:41.472Z,0.70
2018-12-24T07:29:03.720Z,1.27
2018-12-24T07:31:26.027Z,0.90
2018-12-24T07:33:48.255Z,0.50
2018-12-24T07:36:10.521Z,1.40
2018-12-24T07:38:32.891Z,0.60
2018-12-24T07:40:55.179Z,0.60
2018-12-24T07:43:17.534Z,0.67
2018-12-24T07:45:39.791Z,0.70
2018-12-24T07:48:02.038Z,1.07
2018-12-24T07:50:24.275Z,0.77
2018-12-24T07:52:46.495Z,2.27
2018-12-24T07:55:08.739Z,1.60
2018-12-24T07:57:30.979Z,1.47
2018-12-24T07:59:53.286Z,2.57
2018-12-24T08:02:15.579Z,2.00
2018-12-24T08:04:37.807Z,2.17
2018-12-24T08:07:00.151Z,2.53
2018-12-24T08:09:22.399Z,3.17
2018-12-24T08:11:44.711Z,3.13
2018-12-24T08:14:06.976Z,3.43
2018-12-24T08:16:29.243Z,2.73
2018-12-24T08:18:51.527Z,3.40
2018-12-24T08:21:13.788Z,3.40
2018-12-24T08:23:36.107Z,3.33
2018-12-24T08:25:58.382Z,3.27
2018-12-24T08:28:20.695Z,2.60
2018-12-24T08:30:42.922Z,4.37
2018-12-24T08:33:05.252Z,2.40
2018-12-24T08:35:27.587Z,3.00
2018-12-24T08:37:49.823Z,3.33
2018-12-24T08:40:12.075Z,3.47
2018-12-24T08:42:34.341Z,3.83
2018-12-24T08:44:56.651Z,3.40
2018-12-24T08:47:18.906Z,5.07
2018-12-24T08:49:41.155Z,3.97
2018-12-24T08:52:03.451Z,4.30
2018-12-24T08:54:25.818Z,4.90
2018-12-24T08:56:48.150Z,5.83
2018-12-24T08:59:10.384Z,5.53
2018-12-24T09:01:32.683Z,7.30
2018-12-24T09:03:54.962Z,5.30
2018-12-24T09:06:17.275Z,5.77
2018-12-24T09:08:39.535Z,4.93
2018-12-24T09:11:01.831Z,5.47
2018-12-24T09:13:24.107Z,6.33
2018-12-24T09:15:46.343Z,6.17
2018-12-24T09:18:08.640Z,7.07
2018-12-24T09:20:30.924Z,5.23
2018-12-24T09:22:53.231Z,5.23
2018-12-24T09:25:15.469Z,5.20
2018-12-24T09:27:37.703Z,4.73
2018-12-24T09:29:59.978Z,5.30
2018-12-24T09:32:22.255Z,5.20
2018-12-24T09:34:44.507Z,5.57
2018-12-24T09:37:06.780Z,5.00
2018-12-24T09:39:29.103Z,4.13
2018-12-24T09:41:51.397Z,5.67
2018-12-24T09:44:13.687Z,5.30
2018-12-24T09:46:36.094Z,5.90
2018-12-24T09:48:58.350Z,7.73
2018-12-24T09:51:20.552Z,4.60
2018-12-24T09:53:42.791Z,6.17
2018-12-24T09:56:05.053Z,5.23
2018-12-24T09:58:27.392Z,4.10
2018-12-24T10:00:49.659Z,5.40
2018-12-24T10:03:19.615Z,5.10
2018-12-24T10:05:41.875Z,4.10
2018-12-24T10:08:08.334Z,5.03
2018-12-24T10:10:30.723Z,5.13
2018-12-24T10:12:53.011Z,5.00
2018-12-24T10:15:15.299Z,4.97
2018-12-24T10:17:37.573Z,4.70
2018-12-24T10:19:59.868Z,3.87
2018-12-24T10:22:22.135Z,6.17
2018-12-24T10:24:44.443Z,4.60
2018-12-24T10:27:06.726Z,4.30
2018-12-24T10:29:29.023Z,3.67
2018-12-24T10:31:51.347Z,4.37
2018-12-24T10:34:13.591Z,3.13
2018-12-24T10:36:35.876Z,3.67
2018-12-24T10:38:58.143Z,4.83
2018-12-24T10:41:22.945Z,4.93
2018-12-24T10:43:45.218Z,4.50
2018-12-24T10:46:07.464Z,3.60
2018-12-24T10:48:29.759Z,3.60
2018-12-24T10:50:52.059Z,3.93
2018-12-24T10:53:14.339Z,6.93
2018-12-24T10:55:36.667Z,4.70
2018-12-24T10:57:58.933Z,5.07
2018-12-24T11:00:21.176Z,4.00
2018-12-24T11:02:43.505Z,3.67
2018-12-24T11:05:05.814Z,4.00
2018-12-24T11:07:28.143Z,3.97
2018-12-24T11:09:51.371Z,3.50
2018-12-24T11:12:13.670Z,2.90
2018-12-24T11:14:35.972Z,3.40
2018-12-24T11:16:58.245Z,3.27
2018-12-24T11:19:20.545Z,4.63
2018-12-24T11:21:42.919Z,5.37
2018-12-24T11:24:05.160Z,4.03
2018-12-24T11:26:27.492Z,4.73
2018-12-24T11:28:49.801Z,5.23
2018-12-24T11:31:12.070Z,5.27
2018-12-24T11:33:34.458Z,4.90
2018-12-24T11:35:56.678Z,3.43
2018-12-24T11:38:18.910Z,4.47
2018-12-24T11:40:41.135Z,4.20
2018-12-24T11:43:03.406Z,4.17
2018-12-24T11:45:33.618Z,3.53
2018-12-24T11:47:48.017Z,4.37
2018-12-24T11:50:10.253Z,3.67
2018-12-24T11:52:32.487Z,3.07
2018-12-24T11:54:54.728Z,3.40
2018-12-24T11:57:16.984Z,4.20
2018-12-24T11:59:39.220Z,3.77
2018-12-24T12:02:09.780Z,2.90
2018-12-24T12:04:23.762Z,4.37
2018-12-24T12:06:45.959Z,4.40
2018-12-24T12:09:08.239Z,5.63
2018-12-24T12:11:30.447Z,4.37
2018-12-24T12:13:52.863Z,5.50
2018-12-24T12:16:15.043Z,5.03
2018-12-24T12:18:37.279Z,5.50
2018-12-24T12:20:59.555Z,3.13
2018-12-24T12:23:21.797Z,5.30
2018-12-24T12:25:44.042Z,4.07
2018-12-24T12:28:06.319Z,4.17
2018-12-24T12:30:28.615Z,4.77
2018-12-24T12:32:50.921Z,5.97
2018-12-24T12:35:13.162Z,4.23
2018-12-24T12:37:35.462Z,3.87
2018-12-24T12:39:57.672Z,4.13
2018-12-24T12:42:19.932Z,3.27
2018-12-24T12:44:42.241Z,4.67
2018-12-24T12:47:04.481Z,3.07
2018-12-24T12:49:26.726Z,2.17
2018-12-24T12:51:48.963Z,2.93
2018-12-24T12:54:11.177Z,2.20
2018-12-24T12:56:33.411Z,2.40
2018-12-24T12:58:55.635Z,2.73
2018-12-24T13:01:17.902Z,2.10
2018-12-24T13:03:40.123Z,3.07
2018-12-24T13:06:02.359Z,2.87
2018-12-24T13:08:24.579Z,2.37
2018-12-24T13:10:46.827Z,2.27
2018-12-24T13:13:09.063Z,2.50
2018-12-24T13:15:31.301Z,2.87
2018-12-24T13:17:53.549Z,3.00
2018-12-24T13:20:15.785Z,2.17
2018-12-24T13:22:38.019Z,3.57
2018-12-24T13:25:00.349Z,2.13
2018-12-24T13:27:22.545Z,2.93
2018-12-24T13:29:44.799Z,4.40
2018-12-24T13:32:07.056Z,2.13
2018-12-24T13:34:29.267Z,2.20
2018-12-24T13:36:51.503Z,2.60
2018-12-24T13:39:13.733Z,2.80
2018-12-24T13:41:36.057Z,4.23
2018-12-24T13:43:58.385Z,4.77
2018-12-24T13:46:20.851Z,2.80
2018-12-24T13:48:43.092Z,3.80
2018-12-24T13:51:05.323Z,3.63
2018-12-24T13:53:27.633Z,2.90
2018-12-24T13:55:49.835Z,2.40
2018-12-24T13:58:12.087Z,2.77
2018-12-24T14:00:34.415Z,4.00
2018-12-24T14:02:56.640Z,3.03
2018-12-24T14:05:18.923Z,4.67
2018-12-24T14:07:41.155Z,4.13
2018-12-24T14:10:03.555Z,3.23
2018-12-24T14:12:25.785Z,4.37
2018-12-24T14:14:48.002Z,2.83
2018-12-24T14:17:10.236Z,2.97
2018-12-24T14:19:32.494Z,3.10
2018-12-24T14:21:54.813Z,3.13
2018-12-24T14:24:17.049Z,2.23
2018-12-24T14:26:39.343Z,2.87
2018-12-24T14:29:01.557Z,0.80
2018-12-24T14:31:23.831Z,0.73
2018-12-24T14:33:46.069Z,1.43
2018-12-24T14:36:08.327Z,1.10
2018-12-24T14:38:30.577Z,2.60
2018-12-24T14:40:52.795Z,2.03
2018-12-24T14:43:15.051Z,1.90
2018-12-24T14:45:37.295Z,1.87
2018-12-24T14:47:59.521Z,1.80
2018-12-24T14:50:21.755Z,2.50
2018-12-24T14:52:43.990Z,2.00
2018-12-24T14:55:06.233Z,2.07
2018-12-24T14:57:28.455Z,3.10
2018-12-24T14:59:50.695Z,2.43
2018-12-24T15:02:12.951Z,5.00
2018-12-24T15:04:35.227Z,3.67
2018-12-24T15:06:57.463Z,3.50
2018-12-24T15:09:19.699Z,5.70
2018-12-24T15:11:41.953Z,3.27
2018-12-24T15:14:04.165Z,2.57
2018-12-24T15:16:33.733Z,3.97
2018-12-24T15:18:48.677Z,3.07
2018-12-24T15:21:10.912Z,4.20
2018-12-24T15:23:33.128Z,4.47
2018-12-24T15:25:55.360Z,3.90
2018-12-24T15:28:17.595Z,2.93
2018-12-24T15:30:39.855Z,2.07
2018-12-24T15:33:02.133Z,1.80
2018-12-24T15:35:24.398Z,2.00
2018-12-24T15:37:46.599Z,2.83
2018-12-24T15:40:08.832Z,2.03
2018-12-24T15:42:32.178Z,1.97
2018-12-24T15:44:53.323Z,2.20
2018-12-24T15:47:15.583Z,1.50
2018-12-24T15:49:37.792Z,2.50
2018-12-24T15:51:59.999Z,2.90
2018-12-24T15:54:22.239Z,3.27
2018-12-24T15:56:44.475Z,2.50
2018-12-24T15:59:06.712Z,3.03
2018-12-24T16:01:28.963Z,3.53
2018-12-24T16:03:51.206Z,3.03
2018-12-24T16:06:13.554Z,2.07
2018-12-24T16:08:35.722Z,3.20
2018-12-24T16:10:57.961Z,3.97
2018-12-24T16:13:20.219Z,3.73
2018-12-24T16:15:42.432Z,3.30
2018-12-24T16:18:04.715Z,4.27
2018-12-24T16:20:26.952Z,2.67
2018-12-24T16:22:49.203Z,4.30
2018-12-24T16:25:11.422Z,3.23
2018-12-24T16:27:33.672Z,4.90
2018-12-24T16:29:55.908Z,3.40
2018-12-24T16:32:18.143Z,2.70
2018-12-24T16:34:40.389Z,3.00
2018-12-24T16:37:02.668Z,4.43
2018-12-24T16:39:24.903Z,3.50
2018-12-24T16:41:47.139Z,3.37
2018-12-24T16:44:09.419Z,4.43
2018-12-24T16:46:31.717Z,4.30
2018-12-24T16:48:54.022Z,5.50
2018-12-24T16:51:16.330Z,4.90
2018-12-24T16:53:40.600Z,5.10
2018-12-24T16:56:00.801Z,3.30
2018-12-24T16:58:23.095Z,5.10
2018-12-24T17:00:45.337Z,3.57
2018-12-24T17:03:07.590Z,5.20
2018-12-24T17:05:29.842Z,5.33
2018-12-24T17:07:52.088Z,5.73
2018-12-24T17:10:14.310Z,5.33
2018-12-24T17:12:36.547Z,5.63
2018-12-24T17:14:58.781Z,4.87
2018-12-24T17:17:21.055Z,5.37
2018-12-24T17:19:43.309Z,4.10
2018-12-24T17:22:05.531Z,4.57
2018-12-24T17:24:27.825Z,3.80
2018-12-24T17:26:50.091Z,5.53
2018-12-24T17:29:12.347Z,3.73
2018-12-24T17:31:34.667Z,4.47
2018-12-24T17:33:56.895Z,3.40
2018-12-24T17:36:19.152Z,4.37
2018-12-24T17:38:41.398Z,6.03
2018-12-24T17:41:03.651Z,4.70
2018-12-24T17:43:25.908Z,4.47
2018-12-24T17:45:48.124Z,3.60
2018-12-24T17:48:10.359Z,4.27
2018-12-24T17:50:32.600Z,3.27
2018-12-24T17:52:54.879Z,4.37
2018-12-24T17:55:17.090Z,4.53
2018-12-24T17:57:39.351Z,3.47
2018-12-24T18:00:01.652Z,4.43
2018-12-24T18:02:23.861Z,3.67
2018-12-24T18:04:46.118Z,4.53
2018-12-24T18:07:08.391Z,5.90
2018-12-24T18:09:30.641Z,4.43
2018-12-24T18:11:52.883Z,5.80
2018-12-24T18:14:15.140Z,5.43
2018-12-24T18:16:37.351Z,5.10
2018-12-24T18:18:59.639Z,4.37
2018-12-24T18:21:21.902Z,6.03
2018-12-24T18:23:44.137Z,5.07
2018-12-24T18:26:06.412Z,5.57
2018-12-24T18:28:28.648Z,4.47
2018-12-24T18:30:50.913Z,6.27
2018-12-24T18:33:13.145Z,3.70
2018-12-24T18:35:35.411Z,4.57
2018-12-24T18:37:57.649Z,3.90
2018-12-24T18:40:19.882Z,5.43
2018-12-24T18:42:42.127Z,4.37
2018-12-24T18:45:04.391Z,4.60
2018-12-24T18:47:33.198Z,5.87
2018-12-24T18:49:48.863Z,5.30
2018-12-24T18:52:11.140Z,5.67
2018-12-24T18:54:33.399Z,4.73
2018-12-24T18:56:55.683Z,5.03
2018-12-24T18:59:18.001Z,5.40
2018-12-24T19:01:40.388Z,6.63
2018-12-24T19:04:02.744Z,6.13
2018-12-24T19:06:24.977Z,8.10
2018-12-24T19:08:47.253Z,5.27
2018-12-24T19:11:11.370Z,4.97
2018-12-24T19:13:31.749Z,5.40
2018-12-24T19:15:53.955Z,6.43
2018-12-24T19:18:16.224Z,9.27
2018-12-24T19:20:38.490Z,7.50
2018-12-24T19:23:00.711Z,7.80
2018-12-24T19:25:22.993Z,7.60
2018-12-24T19:27:45.199Z,6.27
2018-12-24T19:30:08.218Z,6.30
2018-12-24T19:32:30.564Z,6.40
2018-12-24T19:34:52.789Z,6.07
2018-12-24T19:37:15.019Z,8.43
2018-12-24T19:39:37.226Z,7.17
2018-12-24T19:41:59.498Z,10.30
2018-12-24T19:44:21.737Z,6.67
2018-12-24T19:46:43.971Z,7.13
2018-12-24T19:49:06.265Z,7.50
2018-12-24T19:51:28.538Z,9.10
2018-12-24T19:53:50.773Z,7.73
2018-12-24T19:56:13.016Z,6.67
2018-12-24T19:58:35.263Z,9.20
2018-12-24T20:00:57.595Z,7.67
2018-12-24T20:03:19.831Z,7.87
2018-12-24T20:05:42.103Z,11.73
2018-12-24T20:08:04.419Z,9.93
2018-12-24T20:10:26.691Z,9.40
2018-12-24T20:12:48.972Z,10.03
2018-12-24T20:15:11.199Z,9.57
2018-12-24T20:17:33.467Z,9.00
2018-12-24T20:19:55.704Z,11.60
2018-12-24T20:22:17.955Z,8.90
2018-12-24T20:24:40.203Z,8.20
2018-12-24T20:27:02.501Z,11.87
2018-12-24T20:29:24.744Z,10.93
2018-12-24T20:31:47.011Z,10.70
2018-12-24T20:34:09.236Z,10.60
2018-12-24T20:36:31.483Z,8.03
2018-12-24T20:38:53.813Z,7.70
2018-12-24T20:41:16.044Z,9.07
2018-12-24T20:43:38.275Z,11.30
2018-12-24T20:46:00.522Z,8.77
2018-12-24T20:48:22.829Z,8.97
2018-12-24T20:50:45.191Z,9.33
2018-12-24T20:53:07.332Z,7.93
2018-12-24T20:55:29.623Z,8.07
2018-12-24T20:57:51.842Z,7.50
2018-12-24T21:00:14.079Z,11.67
2018-12-24T21:02:36.378Z,10.37
2018-12-24T21:04:58.615Z,8.00
2018-12-24T21:07:20.831Z,9.43
2018-12-24T21:09:43.108Z,8.80
2018-12-24T21:12:05.395Z,7.60
2018-12-24T21:14:27.653Z,7.53
2018-12-24T21:16:49.900Z,10.40
2018-12-24T21:19:12.152Z,8.60
2018-12-24T21:23:03.995Z,10.70
2018-12-24T21:25:26.220Z,8.23
2018-12-24T21:27:48.494Z,10.97
2018-12-24T21:30:10.734Z,8.77
2018-12-24T21:32:32.940Z,12.27
2018-12-24T21:34:55.183Z,10.13
2018-12-24T21:37:17.395Z,13.73
2018-12-24T21:39:39.631Z,11.40
2018-12-24T21:42:01.848Z,12.17
2018-12-24T21:44:24.088Z,15.40
2018-12-24T21:46:46.352Z,16.83
2018-12-24T21:49:08.572Z,12.73
2018-12-24T21:51:30.791Z,10.57
2018-12-24T21:53:53.014Z,12.20
2018-12-24T21:56:15.246Z,14.87
2018-12-24T21:58:37.479Z,11.23
2018-12-24T22:00:59.682Z,14.33
2018-12-24T22:03:21.935Z,15.87
2018-12-24T22:05:44.272Z,15.53
2018-12-24T22:08:06.519Z,14.60
2018-12-24T22:10:28.755Z,19.30
2018-12-24T22:12:50.979Z,17.67
2018-12-24T22:15:13.287Z,13.57
2018-12-24T22:17:35.557Z,13.50
2018-12-24T22:19:57.785Z,15.27
2018-12-24T22:22:20.019Z,19.00
2018-12-24T22:24:42.224Z,15.30
2018-12-24T22:27:04.481Z,17.40
2018-12-24T22:29:26.683Z,13.20
2018-12-24T22:31:48.919Z,17.83
2018-12-24T22:34:11.206Z,19.67
2018-12-24T22:36:33.453Z,17.73
2018-12-24T22:38:55.711Z,16.37
2018-12-24T22:41:17.952Z,17.73
2018-12-24T22:43:40.227Z,20.10
2018-12-24T22:46:02.432Z,18.97
2018-12-24T22:48:24.653Z,18.80
2018-12-24T22:50:46.935Z,19.73
2018-12-24T22:53:09.164Z,21.97
2018-12-24T22:55:31.367Z,19.47
2018-12-24T22:57:53.620Z,21.47
2018-12-24T23:00:20.412Z,19.70
2018-12-24T23:02:42.640Z,20.90
2018-12-24T23:05:04.911Z,16.00
2018-12-24T23:07:27.144Z,20.60
2018-12-24T23:09:49.388Z,22.93
2018-12-24T23:12:11.708Z,19.60
2018-12-24T23:14:33.951Z,19.63
2018-12-24T23:16:56.162Z,21.07
2018-12-24T23:19:18.391Z,19.73
2018-12-24T23:21:40.610Z,19.47
2018-12-24T23:24:02.848Z,21.43
2018-12-24T23:26:25.088Z,20.63
2018-12-24T23:28:47.303Z,21.43
2018-12-24T23:31:09.546Z,19.70
2018-12-24T23:33:31.875Z,18.93
2018-12-24T23:35:54.114Z,14.33
2018-12-24T23:38:16.351Z,20.80
2018-12-24T23:40:38.559Z,17.17
2018-12-24T23:43:00.811Z,17.53
2018-12-24T23:45:23.056Z,23.17
2018-12-24T23:47:45.259Z,26.03
2018-12-24T23:50:07.516Z,17.53
2018-12-24T23:52:29.763Z,20.50
2018-12-24T23:54:51.995Z,21.93
2018-12-24T23:57:14.203Z,18.83
2018-12-24T23:59:36.471Z,20.83
